Airfield :
LOGIN :

Register | Disclaimer

   EN    FR    IT 

 










Legend :    VFR   Marginal VFR   IFR   Intensive IFR   Very Intensive IFR
Visi :
Ceiling :
>= 8 km
>= 3000ft
5 to 8 km
1000 to 3000 ft
1500m to 5 km
500 to 1000 ft
800 to 1500m
200 to 500 ft
< 800m
< 200 ft
Symbols :   Thunderstorms  Fog  Heavy snow  Heavy precipitations  Wind > 20 kt
SIGMETs :     Misc.  Thunderstorms  Icing  Turbulence  Mountain Waves  Volcanic Ashes







- Airport Elevation : 1079 ft


ETIK - Illesheim Air Base

CURRENT METAR :
  • 170656Z AUTO 04003KT 1200 R06/0800VP1500 BR VV001 13/13 A3021 RMK AO2 SLP228 T01300130 $

EXPIRED METARs :
  • 170641Z AUTO 06003KT 0400 R06/0500V0900 FG VV001 13/13 A3021 RMK AO2 SLP228 $
  • 170556Z AUTO 00000KT 0200 R06/0350 FG VV001 12/12 A3021 RMK AO2 RAE00RAB02E11 SLP228 P0000 60000 T01240124 10124 20087 50001 $
  • 170541Z AUTO 00000KT 0200 R06/0350V0400 FG VV001 12/12 A3021 RMK AO2 RAE00RAB02E11 SLP228 $
  • 170511Z AUTO 00000KT M0200 R06/0250V0300 FG VV000 12/12 A3021 RMK AO2 RAE00RAB02E11 SLP228 $
  • 170502Z AUTO 00000KT M0200 R06/0200V0250 -RA FG VV000 12/12 A3021 RMK AO2 RAE00RAB02 SLP228 $
  • 170456Z AUTO 00000KT M0200 R06/0200V0250 -RA FG VV000 11/11 A3021 RMK AO2 RAB50 SLP228 P0000 T01130113 $
  • 170411Z AUTO 00000KT M0200 R06/0300V0350 FG VV001 11/11 A3021 RMK AO2 SLP230 $

Expired Forecast.
No reported NOTAMs for that airfield.



MET'MAP, your aeronautical weather chart ! - Copyright ORBIFLY December 2007 - Disclaimer

ORBIFLY MET'MAP TEAM :

Programming & Development : Alexandra Zaïnal
Concept & Development : Baudouin d'Aumeries
Co-Development & Prog : Marc-Olivier Méhu
Technical & hardware support : Manuel Goepfert

Contact : metmap@orbifly.com




SOURCES & CREDITS :

   NOAA